Time;durP1;ratioP1;P1;durP2;ratioP2;P2;SDS_P1;SDS_P2;PMS_P1;PMS_P2;Temp;Humidity;BMP_temperature;BMP_pressure;BME280_temperature;BME280_humidity;BME280_pressure;Samples;Min_cycle;Max_cycle;Signal;HPM_P1;HPM_P2
2024/02/01 00:01:17;;;;;;;19.30;6.80;;;;;;;4.73;54.99;101375.27;108851;1251;66135;-58
2024/02/01 00:03:45;;;;;;;11.50;4.60;;;;;;;4.80;54.88;101367.88;108930;1251;60610;-56
2024/02/01 00:06:12;;;;;;;18.60;7.60;;;;;;;4.84;54.97;101361.94;108808;1252;58306;-57
2024/02/01 00:08:40;;;;;;;14.10;6.60;;;;;;;5.01;54.76;101359.35;108849;1250;62876;-57
2024/02/01 00:11:07;;;;;;;14.00;6.60;;;;;;;5.17;54.55;101362.54;105139;1253;62069;-58
2024/02/01 00:13:35;;;;;;;16.10;7.90;;;;;;;5.11;54.69;101358.97;104366;1253;62590;-56
2024/02/01 00:16:03;;;;;;;16.00;7.40;;;;;;;5.06;54.75;101351.68;104302;1253;61326;-56
2024/02/01 00:18:30;;;;;;;12.60;7.40;;;;;;;5.05;54.59;101349.11;108923;1253;60230;-57
2024/02/01 00:20:58;;;;;;;14.80;8.40;;;;;;;5.00;54.80;101351.39;105267;1253;67467;-56
2024/02/01 00:23:26;;;;;;;18.10;11.30;;;;;;;4.96;54.83;101349.13;104343;1257;60547;-56
2024/02/01 00:25:53;;;;;;;17.60;9.60;;;;;;;4.93;54.83;101348.89;104382;1253;75081;-56
2024/02/01 00:28:21;;;;;;;16.80;9.00;;;;;;;4.89;54.89;101351.83;104527;1251;60465;-56
2024/02/01 00:30:49;;;;;;;18.30;8.60;;;;;;;4.83;54.92;101351.02;104436;1257;60534;-57
2024/02/01 00:33:16;;;;;;;18.30;8.80;;;;;;;4.79;55.07;101346.16;104344;1251;65869;-57
2024/02/01 00:35:45;;;;;;;17.40;7.10;;;;;;;4.75;55.11;101343.00;104300;1253;61486;-56
2024/02/01 00:38:13;;;;;;;20.10;9.00;;;;;;;4.70;55.21;101342.88;104316;1253;65663;-56
2024/02/01 00:40:40;;;;;;;16.30;7.70;;;;;;;4.64;55.38;101338.59;107533;1253;60470;-57
2024/02/01 00:43:08;;;;;;;14.60;7.60;;;;;;;4.59;55.59;101335.69;104298;1255;60486;-56
2024/02/01 00:45:35;;;;;;;21.50;9.80;;;;;;;4.55;55.86;101334.80;104183;1253;65286;-59
2024/02/01 00:48:04;;;;;;;13.30;7.70;;;;;;;4.52;56.00;101333.14;108674;1251;62003;-59
2024/02/01 00:50:32;;;;;;;23.80;8.70;;;;;;;4.49;56.19;101336.05;106145;1258;66392;-59
2024/02/01 00:52:59;;;;;;;20.30;8.80;;;;;;;4.50;56.45;101333.95;104257;1258;61558;-56
2024/02/01 00:55:27;;;;;;;14.60;7.70;;;;;;;4.49;56.54;101332.93;108659;1251;59538;-59
2024/02/01 00:57:54;;;;;;;14.60;6.10;;;;;;;4.55;56.64;101327.15;107207;1255;68438;-57
2024/02/01 01:00:22;;;;;;;16.90;7.70;;;;;;;4.67;56.61;101323.39;104520;1253;61544;-57
2024/02/01 01:02:50;;;;;;;21.20;8.20;;;;;;;4.79;56.58;101329.30;104307;1251;71384;-58
2024/02/01 01:05:17;;;;;;;13.90;6.60;;;;;;;4.88;56.64;101323.70;104677;1257;62228;-58
2024/02/01 01:07:45;;;;;;;18.30;7.40;;;;;;;5.01;56.51;101318.65;108800;1250;59158;-57
2024/02/01 01:10:12;;;;;;;16.30;6.80;;;;;;;5.12;56.41;101314.02;108606;1251;64917;-57
2024/02/01 01:12:40;;;;;;;20.20;11.00;;;;;;;5.20;56.36;101303.96;104331;1251;61311;-57
2024/02/01 01:15:08;;;;;;;21.30;10.00;;;;;;;5.27;56.21;101298.78;104322;1253;62468;-58
2024/02/01 01:17:36;;;;;;;21.40;11.90;;;;;;;5.29;56.09;101295.90;108795;1252;58383;-58
2024/02/01 01:20:04;;;;;;;19.10;10.40;;;;;;;5.30;55.95;101295.89;108839;1253;58943;-57
2024/02/01 01:22:32;;;;;;;16.60;8.20;;;;;;;5.29;55.83;101291.91;108727;1252;65991;-58
2024/02/01 01:24:59;;;;;;;18.40;8.70;;;;;;;5.26;55.83;101284.73;108826;1250;60837;-57
2024/02/01 01:27:27;;;;;;;14.20;8.30;;;;;;;5.24;55.90;101280.33;108827;1254;62466;-58
2024/02/01 01:29:54;;;;;;;20.50;10.50;;;;;;;5.18;55.95;101278.46;108796;1253;59114;-58
2024/02/01 01:32:22;;;;;;;16.40;8.90;;;;;;;5.10;56.08;101275.15;108863;1250;60096;-59
2024/02/01 01:34:49;;;;;;;18.10;8.80;;;;;;;5.05;56.28;101270.00;108843;1251;65610;-58
2024/02/01 01:37:17;;;;;;;19.40;8.60;;;;;;;4.99;56.35;101269.52;108815;1250;60406;-57
2024/02/01 01:39:44;;;;;;;18.50;8.90;;;;;;;4.95;56.52;101267.44;108842;1251;62532;-58
2024/02/01 01:42:12;;;;;;;18.10;8.90;;;;;;;4.91;56.63;101263.43;108862;1250;58512;-59
2024/02/01 01:44:40;;;;;;;19.90;10.90;;;;;;;4.88;56.72;101261.99;108823;1250;59028;-58
2024/02/01 01:47:07;;;;;;;18.50;10.20;;;;;;;4.87;56.91;101260.48;108871;1251;63679;-59
2024/02/01 01:49:35;;;;;;;24.30;11.90;;;;;;;4.86;56.99;101252.17;107666;1256;60285;-57
2024/02/01 01:52:03;;;;;;;19.30;9.00;;;;;;;4.91;57.05;101245.73;108768;1253;62478;-58
2024/02/01 01:54:31;;;;;;;18.70;7.90;;;;;;;5.01;57.05;101244.21;108778;1251;58873;-56
2024/02/01 01:56:58;;;;;;;16.30;7.20;;;;;;;5.12;57.05;101248.27;104405;1251;61630;-55
2024/02/01 01:59:26;;;;;;;19.30;7.70;;;;;;;5.25;56.92;101240.62;104882;1257;72660;-57
2024/02/01 02:01:54;;;;;;;18.70;7.60;;;;;;;5.33;56.95;101235.20;108761;1256;62391;-55
2024/02/01 02:04:22;;;;;;;15.90;8.30;;;;;;;5.37;56.97;101230.48;106324;1253;63793;-55
2024/02/01 02:06:55;;;;;;;14.80;7.10;;;;;;;5.38;56.94;101231.66;104419;1253;60444;-55
2024/02/01 02:09:23;;;;;;;33.90;22.50;;;;;;;5.39;56.97;101230.92;108931;1253;59732;-56
2024/02/01 02:11:52;;;;;;;17.80;10.20;;;;;;;5.37;56.84;101225.96;108653;1251;64846;-56
2024/02/01 02:14:19;;;;;;;18.50;9.10;;;;;;;5.35;56.88;101220.81;108881;1255;61431;-57
2024/02/01 02:16:47;;;;;;;13.20;8.00;;;;;;;5.35;56.88;101214.91;108905;1251;64686;-58
2024/02/01 02:19:16;;;;;;;16.60;8.30;;;;;;;5.36;56.89;101215.23;107582;1253;60565;-56
2024/02/01 02:21:48;;;;;;;15.90;8.40;;;;;;;5.34;56.87;101218.59;108877;1252;58911;-57
2024/02/01 02:24:16;;;;;;;19.50;8.40;;;;;;;5.31;56.89;101216.51;108813;1250;66120;-56
2024/02/01 02:26:44;;;;;;;19.60;9.90;;;;;;;5.26;56.88;101213.08;108475;1257;65442;-57
2024/02/01 02:29:15;;;;;;;14.70;7.10;;;;;;;5.20;56.84;101214.52;108863;1253;64202;-55
2024/02/01 02:31:44;;;;;;;21.10;11.20;;;;;;;5.14;56.89;101215.67;108830;1253;59015;-57
2024/02/01 02:34:11;;;;;;;18.80;10.40;;;;;;;5.08;56.97;101211.95;107549;1256;61096;-56
2024/02/01 02:36:40;;;;;;;19.20;9.40;;;;;;;5.02;56.93;101208.16;107496;1253;64997;-57
2024/02/01 02:39:11;;;;;;;19.20;9.30;;;;;;;4.98;56.89;101205.08;108867;1251;61790;-53
2024/02/01 02:41:40;;;;;;;15.80;7.30;;;;;;;4.97;56.67;101200.05;108823;1250;62674;-58
2024/02/01 02:44:10;;;;;;;17.60;7.90;;;;;;;4.99;56.48;101195.30;108828;1251;58264;-60
2024/02/01 02:46:38;;;;;;;17.80;8.90;;;;;;;4.99;56.29;101191.27;108844;1253;58320;-57
2024/02/01 02:49:08;;;;;;;16.90;8.10;;;;;;;4.98;56.15;101186.10;105872;1253;65892;-55
2024/02/01 02:51:39;;;;;;;20.70;8.00;;;;;;;5.00;56.31;101179.23;104915;1254;61564;-57
2024/02/01 02:54:10;;;;;;;24.60;10.60;;;;;;;5.01;56.50;101170.84;108856;1251;64878;-57
2024/02/01 02:56:39;;;;;;;19.00;9.70;;;;;;;5.06;56.81;101169.61;108779;1251;58920;-56
2024/02/01 02:59:06;;;;;;;17.50;8.50;;;;;;;5.09;56.91;101170.35;106231;1250;60492;-56
2024/02/01 03:01:34;;;;;;;16.80;8.30;;;;;;;5.07;56.84;101170.27;104391;1254;67294;-57
2024/02/01 03:04:02;;;;;;;16.80;9.20;;;;;;;5.01;56.96;101169.79;104394;1254;63216;-58
2024/02/01 03:06:30;;;;;;;19.80;10.20;;;;;;;4.96;57.07;101164.98;104398;1253;66539;-55
2024/02/01 03:08:58;;;;;;;27.30;11.40;;;;;;;4.91;57.06;101161.05;104377;1259;60735;-56
2024/02/01 03:11:26;;;;;;;20.30;8.60;;;;;;;4.84;57.06;101161.14;104392;1252;61118;-56
2024/02/01 03:13:54;;;;;;;18.30;9.30;;;;;;;4.76;57.04;101163.40;104323;1256;65011;-55
2024/02/01 03:16:22;;;;;;;20.80;10.80;;;;;;;4.67;57.12;101160.35;104486;1253;60628;-55
2024/02/01 03:18:49;;;;;;;18.50;9.50;;;;;;;4.56;57.16;101157.67;104413;1253;62454;-55
2024/02/01 03:21:18;;;;;;;24.80;9.80;;;;;;;4.46;57.29;101161.60;108802;1253;58698;-56
2024/02/01 03:23:46;;;;;;;23.10;10.80;;;;;;;4.36;57.58;101154.69;108855;1253;58939;-56
2024/02/01 03:26:14;;;;;;;23.70;10.70;;;;;;;4.28;58.02;101148.60;108899;1254;64826;-56
2024/02/01 03:28:43;;;;;;;16.90;7.80;;;;;;;4.22;58.26;101146.04;108905;1252;60354;-57
2024/02/01 03:31:11;;;;;;;23.70;8.30;;;;;;;4.24;58.26;101148.07;108846;1252;63714;-57
2024/02/01 03:33:40;;;;;;;17.10;8.10;;;;;;;4.32;58.36;101147.57;106926;1257;60470;-57
2024/02/01 03:36:08;;;;;;;21.50;9.10;;;;;;;4.37;58.43;101147.88;104960;1257;61392;-54
2024/02/01 03:38:37;;;;;;;14.60;7.30;;;;;;;4.41;58.63;101144.58;104414;1253;64896;-59
2024/02/01 03:41:05;;;;;;;25.00;11.00;;;;;;;4.46;58.78;101136.36;108796;1251;60613;-61
2024/02/01 03:43:33;;;;;;;19.20;9.10;;;;;;;4.54;58.98;101133.94;108829;1253;62463;-59
2024/02/01 03:46:00;;;;;;;21.30;10.40;;;;;;;4.61;59.06;101131.04;108835;1252;58925;-59
2024/02/01 03:48:28;;;;;;;18.10;9.00;;;;;;;4.63;59.07;101127.10;108853;1253;59005;-57
2024/02/01 03:50:56;;;;;;;16.90;9.30;;;;;;;4.62;59.11;101124.38;108848;1250;64908;-55
2024/02/01 03:53:23;;;;;;;17.60;8.70;;;;;;;4.61;59.15;101124.62;107106;1253;60111;-57
2024/02/01 03:55:50;;;;;;;18.30;9.20;;;;;;;4.61;59.03;101119.92;104297;1253;65997;-56
2024/02/01 03:58:18;;;;;;;19.80;9.60;;;;;;;4.56;59.12;101117.36;104561;1259;60458;-56
2024/02/01 04:00:50;;;;;;;15.60;9.20;;;;;;;4.53;59.22;101109.83;104758;1256;60426;-57
2024/02/01 04:03:18;;;;;;;20.80;9.70;;;;;;;4.50;59.33;101108.23;104466;1254;64861;-57
2024/02/01 04:05:46;;;;;;;16.90;8.20;;;;;;;4.44;59.51;101103.79;104452;1253;63023;-56
2024/02/01 04:08:17;;;;;;;17.40;9.10;;;;;;;4.41;59.53;101101.50;108728;1257;66121;-57
2024/02/01 04:10:45;;;;;;;21.20;9.50;;;;;;;4.39;59.60;101100.51;108870;1253;58916;-59
2024/02/01 04:13:13;;;;;;;12.40;5.80;;;;;;;4.39;59.68;101102.99;108923;1250;59013;-58
2024/02/01 04:15:42;;;;;;;21.50;10.10;;;;;;;4.41;59.62;101097.30;108860;1252;65049;-57
2024/02/01 04:18:10;;;;;;;33.40;17.00;;;;;;;4.53;59.53;101093.66;108870;1250;60133;-57
2024/02/01 04:20:39;;;;;;;22.60;9.00;;;;;;;4.67;59.39;101091.70;108843;1253;63935;-57
2024/02/01 04:23:07;;;;;;;17.20;7.30;;;;;;;4.75;59.36;101091.83;108829;1250;58887;-59
2024/02/01 04:25:35;;;;;;;16.10;7.50;;;;;;;4.84;59.30;101090.77;108789;1253;59067;-57
2024/02/01 04:28:08;;;;;;;17.70;9.30;;;;;;;4.90;59.27;101088.77;108887;1250;64950;-58
2024/02/01 04:30:37;;;;;;;18.90;8.30;;;;;;;4.93;59.30;101088.42;105078;1253;61400;-57
2024/02/01 04:33:06;;;;;;;15.20;8.10;;;;;;;4.96;59.29;101086.05;104612;1254;66607;-57
2024/02/01 04:35:34;;;;;;;17.30;9.10;;;;;;;4.98;59.23;101088.41;106995;1253;60478;-58
2024/02/01 04:38:04;;;;;;;15.60;8.70;;;;;;;4.96;59.25;101083.78;104614;1251;60555;-57
2024/02/01 04:40:32;;;;;;;20.20;7.90;;;;;;;4.92;59.25;101079.97;104499;1251;67170;-60
2024/02/01 04:43:01;;;;;;;14.50;7.40;;;;;;;4.87;59.23;101081.23;108925;1257;60421;-56
2024/02/01 04:45:29;;;;;;;17.30;8.20;;;;;;;4.81;59.32;101083.39;106193;1253;64179;-56
2024/02/01 04:47:57;;;;;;;18.20;9.30;;;;;;;4.77;59.47;101080.66;104463;1253;60445;-56
2024/02/01 04:50:25;;;;;;;19.90;9.10;;;;;;;4.71;59.50;101075.55;104541;1257;60559;-55
2024/02/01 04:52:53;;;;;;;19.60;7.90;;;;;;;4.69;59.61;101077.00;104505;1254;67729;-55
2024/02/01 04:55:21;;;;;;;18.10;8.60;;;;;;;4.66;59.71;101076.06;104562;1251;61532;-55
2024/02/01 04:57:48;;;;;;;15.20;7.20;;;;;;;4.68;59.71;101070.96;104773;1254;63725;-55
2024/02/01 05:00:21;;;;;;;17.20;8.20;;;;;;;4.76;59.64;101066.63;104395;1259;60504;-57
2024/02/01 05:02:49;;;;;;;23.50;8.80;;;;;;;4.81;59.57;101063.27;108786;1253;58511;-56
2024/02/01 05:05:17;;;;;;;16.60;7.10;;;;;;;4.85;59.61;101065.34;108842;1251;65148;-57
2024/02/01 05:07:45;;;;;;;31.10;21.30;;;;;;;4.87;59.71;101067.14;104825;1254;60419;-57
2024/02/01 05:10:12;;;;;;;18.30;9.60;;;;;;;4.88;59.68;101063.63;104519;1254;62479;-55
2024/02/01 05:12:40;;;;;;;17.80;7.90;;;;;;;4.86;59.58;101057.63;108900;1250;58701;-56
2024/02/01 05:15:09;;;;;;;19.30;9.20;;;;;;;4.84;59.60;101056.88;108827;1253;59666;-57
2024/02/01 05:17:37;;;;;;;21.00;10.30;;;;;;;4.80;59.60;101055.81;108918;1250;63865;-56
2024/02/01 05:20:11;;;;;;;23.00;10.60;;;;;;;4.74;59.63;101052.44;108866;1251;63772;-56
2024/02/01 05:22:40;;;;;;;18.20;9.80;;;;;;;4.69;59.69;101050.42;108610;1251;64769;-56
2024/02/01 05:25:22;;;;;;;20.00;10.10;;;;;;;4.64;59.87;101051.65;108882;1251;58936;-56
2024/02/01 05:27:54;;;;;;;19.20;8.00;;;;;;;4.60;59.85;101049.92;108322;1254;60202;-55
2024/02/01 05:30:22;;;;;;;18.50;7.90;;;;;;;4.61;59.79;101050.26;104537;1256;63939;-57
2024/02/01 05:32:54;;;;;;;15.60;6.30;;;;;;;4.66;59.70;101050.02;108839;1251;61517;-57
2024/02/01 05:35:28;;;;;;;16.20;8.50;;;;;;;4.72;59.64;101051.13;108867;1252;62520;-58
2024/02/01 05:37:57;;;;;;;18.40;6.80;;;;;;;4.79;59.64;101053.98;108840;1252;59517;-56
2024/02/01 05:40:25;;;;;;;17.70;8.00;;;;;;;4.85;59.50;101059.95;108895;1253;59562;-57
2024/02/01 05:42:52;;;;;;;32.10;21.30;;;;;;;4.90;59.51;101054.84;107344;1256;67152;-58
2024/02/01 05:45:20;;;;;;;18.30;8.10;;;;;;;4.92;59.52;101051.10;104449;1253;62475;-55
2024/02/01 05:47:51;;;;;;;24.00;8.30;;;;;;;4.88;59.61;101048.86;104474;1259;63805;-55
2024/02/01 05:50:19;;;;;;;15.10;7.40;;;;;;;4.85;59.76;101044.84;104575;1253;60469;-56
2024/02/01 05:52:47;;;;;;;19.30;10.60;;;;;;;4.82;59.69;101039.05;104556;1258;60301;-54
2024/02/01 05:55:14;;;;;;;20.80;9.10;;;;;;;4.75;59.73;101040.39;108441;1251;63737;-54
2024/02/01 05:57:42;;;;;;;19.90;9.50;;;;;;;4.66;59.84;101036.98;104457;1256;60511;-50
2024/02/01 06:00:11;;;;;;;17.60;7.70;;;;;;;4.58;59.86;101033.67;104371;1257;64128;-55
2024/02/01 06:02:41;;;;;;;16.50;9.00;;;;;;;4.52;59.91;101028.77;107122;1253;60494;-58
2024/02/01 06:05:09;;;;;;;16.10;7.90;;;;;;;4.46;60.16;101025.89;108827;1253;58881;-57
2024/02/01 06:07:37;;;;;;;18.10;7.10;;;;;;;4.43;60.40;101025.12;108849;1254;63669;-57
2024/02/01 06:10:07;;;;;;;14.20;7.10;;;;;;;4.42;60.41;101027.10;108829;1251;61396;-56
2024/02/01 06:12:37;;;;;;;15.50;6.20;;;;;;;4.48;60.45;101028.23;108720;1254;63813;-57
2024/02/01 06:15:06;;;;;;;15.30;8.00;;;;;;;4.62;60.33;101028.84;108789;1256;60323;-57
2024/02/01 06:17:35;;;;;;;16.10;6.90;;;;;;;4.73;60.19;101020.66;108830;1253;59292;-56
2024/02/01 06:20:03;;;;;;;18.90;7.50;;;;;;;4.82;60.15;101014.69;108811;1256;67205;-56
2024/02/01 06:22:31;;;;;;;20.10;9.20;;;;;;;4.93;60.10;101015.61;108880;1251;61631;-59
2024/02/01 06:24:58;;;;;;;20.10;9.50;;;;;;;5.00;60.07;101010.91;108798;1251;62438;-56
2024/02/01 06:27:26;;;;;;;35.20;25.60;;;;;;;5.03;60.09;101011.11;108821;1252;59119;-57
2024/02/01 06:29:54;;;;;;;20.90;9.30;;;;;;;5.03;60.05;101004.52;108845;1250;60340;-57
2024/02/01 06:32:21;;;;;;;18.50;9.90;;;;;;;5.03;60.12;101001.20;108834;1258;78077;-59
2024/02/01 06:35:05;;;;;;;18.90;8.60;;;;;;;5.02;60.09;100999.38;107481;1257;64231;-57
2024/02/01 06:37:39;;;;;;;18.60;9.10;;;;;;;5.00;60.14;100988.83;108883;1253;62571;-60
2024/02/01 06:40:37;;;;;;;20.10;9.40;;;;;;;4.98;60.17;100990.31;108924;1256;60223;-58
2024/02/01 06:43:17;;;;;;;22.00;11.70;;;;;;;4.97;60.21;100993.30;108846;1256;60761;-57
2024/02/01 06:45:47;;;;;;;16.10;7.60;;;;;;;5.00;60.26;100994.23;108385;1253;64915;-56
2024/02/01 06:48:16;;;;;;;17.10;8.00;;;;;;;5.10;60.22;100990.26;108826;1253;60122;-56
2024/02/01 06:51:07;;;;;;;20.60;9.20;;;;;;;5.24;60.00;100986.49;108876;1253;63751;-56
2024/02/01 06:53:37;;;;;;;23.50;10.00;;;;;;;5.37;59.81;100983.61;108694;1251;60103;-57
2024/02/01 06:56:13;;;;;;;18.50;7.60;;;;;;;5.50;59.66;100964.55;108880;1256;58987;-56
2024/02/01 06:58:49;;;;;;;13.50;7.50;;;;;;;5.61;59.51;100965.71;105710;1256;66096;-55
2024/02/01 07:04:20;;;;;;;18.50;8.80;;;;;;;5.71;59.44;100964.20;104418;1254;71620;-60
2024/02/01 07:07:05;;;;;;;17.90;8.70;;;;;;;5.71;59.26;100967.98;104440;1257;60553;-60
2024/02/01 07:09:37;;;;;;;16.10;7.90;;;;;;;5.69;59.14;100975.92;105131;1256;59399;-58
2024/02/01 07:12:19;;;;;;;31.00;22.20;;;;;;;5.66;59.15;100966.33;105248;1259;65322;-57
2024/02/01 07:15:09;;;;;;;20.40;9.90;;;;;;;5.62;59.14;100958.90;105516;1257;72526;-57
2024/02/01 07:17:43;;;;;;;16.60;7.90;;;;;;;5.62;59.17;100953.52;108974;1251;64068;-58
2024/02/01 07:20:23;;;;;;;17.10;8.80;;;;;;;5.67;59.09;100947.81;108867;1254;58832;-60
2024/02/01 07:23:16;;;;;;;17.20;8.40;;;;;;;5.78;58.92;100942.39;108883;1250;58861;-60
2024/02/01 07:25:48;;;;;;;20.40;8.90;;;;;;;5.96;58.67;100948.33;108875;1252;68329;-59
2024/02/01 07:58:53;;;;;;;20.80;8.50;;;;;;;5.91;59.39;100924.17;104973;1254;63700;-60
2024/02/01 08:01:24;;;;;;;20.60;9.60;;;;;;;5.89;59.43;100921.81;108894;1251;59218;-58
2024/02/01 08:09:18;;;;;;;;;;;;;;;5.96;59.52;100918.54;108868;1257;61395;-59
2024/02/01 08:11:46;;;;;;;19.40;8.10;;;;;;;5.98;59.44;100911.98;108776;1256;67944;-58
2024/02/01 08:14:13;;;;;;;18.00;7.70;;;;;;;6.02;59.48;100903.95;108796;1256;58924;-58
2024/02/01 08:16:42;;;;;;;16.50;7.10;;;;;;;6.15;59.29;100894.73;108866;1251;60028;-61
2024/02/01 08:19:10;;;;;;;19.40;10.30;;;;;;;6.30;59.11;100894.80;108599;1251;334918;-57
2024/02/01 08:35:00;;;;;;;18.30;9.20;;;;;;;6.64;58.57;100868.36;102480;1283;604839;-55
2024/02/01 08:37:28;;;;;;;31.70;21.90;;;;;;;7.26;56.51;100864.33;107763;1269;151849;-57
2024/02/01 08:39:56;;;;;;;19.10;8.80;;;;;;;7.19;56.61;100863.85;108051;1266;58703;-57
2024/02/01 08:42:29;;;;;;;30.50;21.10;;;;;;;7.21;56.72;100861.96;108056;1266;63700;-57
2024/02/01 08:45:00;;;;;;;17.10;8.80;;;;;;;7.33;56.68;100864.63;108089;1266;62462;-57
2024/02/01 08:47:28;;;;;;;31.10;22.10;;;;;;;7.41;56.52;100863.76;106182;1266;74713;-56
2024/02/01 08:50:06;;;;;;;30.50;22.80;;;;;;;7.44;56.56;100859.96;107296;1266;61172;-57
2024/02/01 08:52:33;;;;;;;16.50;9.50;;;;;;;7.47;56.40;100863.45;103545;1266;60144;-58
2024/02/01 08:55:01;;;;;;;20.00;9.80;;;;;;;7.45;56.23;100859.70;103438;1266;73234;-57
2024/02/01 08:57:30;;;;;;;32.40;23.60;;;;;;;7.44;56.33;100860.30;103758;1270;62516;-58
2024/02/01 08:59:57;;;;;;;16.90;9.00;;;;;;;7.41;56.35;100857.47;103441;1266;63932;-57
2024/02/01 09:02:25;;;;;;;34.90;24.20;;;;;;;7.39;56.20;100848.55;103455;1266;61718;-59
2024/02/01 09:04:55;;;;;;;20.30;9.90;;;;;;;7.38;56.16;100848.79;103423;1263;61857;-58
2024/02/01 09:07:26;;;;;;;19.70;10.10;;;;;;;7.37;56.17;100836.62;108017;1266;64290;-57
2024/02/01 09:09:55;;;;;;;33.60;21.80;;;;;;;7.39;56.09;100832.48;108625;1257;62732;-58
2024/02/01 09:12:24;;;;;;;15.60;7.00;;;;;;;7.51;55.95;100825.67;108614;1255;62544;-59
2024/02/01 09:14:52;;;;;;;13.10;7.40;;;;;;;7.69;55.81;100815.16;108593;1254;63553;-58
2024/02/01 09:17:19;;;;;;;28.30;20.60;;;;;;;7.86;55.41;100814.48;108557;1254;58905;-62
2024/02/01 09:19:47;;;;;;;27.70;20.20;;;;;;;7.98;54.68;100810.40;108670;1254;66458;-58
2024/02/01 09:22:15;;;;;;;18.80;10.10;;;;;;;8.07;54.36;100804.41;105478;1256;63965;-59
2024/02/01 09:24:43;;;;;;;28.00;20.80;;;;;;;8.14;54.07;100794.92;104238;1257;73611;-58
2024/02/01 09:27:11;;;;;;;15.80;7.90;;;;;;;8.20;53.83;100791.19;107428;1256;61837;-58
2024/02/01 09:29:40;;;;;;;25.90;19.40;;;;;;;8.27;53.73;100787.44;105675;1256;59523;-56
2024/02/01 09:32:08;;;;;;;18.40;7.70;;;;;;;8.34;53.64;100781.03;108676;1254;62923;-59
2024/02/01 09:34:38;;;;;;;27.60;20.30;;;;;;;8.42;53.36;100782.30;106633;1259;61292;-57
2024/02/01 09:37:06;;;;;;;25.50;19.60;;;;;;;8.46;53.31;100774.89;108592;1255;62878;-57
2024/02/01 09:39:34;;;;;;;17.00;6.90;;;;;;;8.47;52.87;100768.39;108610;1259;58007;-57
2024/02/01 09:42:11;;;;;;;26.20;19.20;;;;;;;8.44;52.51;100768.04;108653;1256;58343;-61
2024/02/01 09:44:40;;;;;;;14.90;7.10;;;;;;;8.40;52.51;100756.92;108524;1255;64661;-60
2024/02/01 09:47:08;;;;;;;26.80;19.40;;;;;;;8.35;52.63;100751.27;106411;1257;61362;-57
2024/02/01 09:49:35;;;;;;;16.10;8.30;;;;;;;8.31;52.67;100752.92;104405;1256;64679;-56
2024/02/01 09:52:09;;;;;;;29.20;19.60;;;;;;;8.33;52.62;100744.42;103974;1261;59327;-58
2024/02/01 09:54:37;;;;;;;29.20;20.10;;;;;;;8.36;52.50;100736.84;104151;1257;60862;-61
2024/02/01 09:57:14;;;;;;;14.80;7.00;;;;;;;8.35;52.53;100733.80;104279;1259;66378;-56
2024/02/01 09:59:43;;;;;;;30.80;21.00;;;;;;;8.31;52.64;100726.55;104608;1262;64144;-57
2024/02/01 10:02:11;;;;;;;26.60;18.50;;;;;;;8.29;52.73;100722.16;104308;1257;63769;-57
2024/02/01 10:04:40;;;;;;;15.50;8.40;;;;;;;8.27;52.77;100728.55;104171;1257;60297;-58
2024/02/01 10:07:10;;;;;;;27.00;18.90;;;;;;;8.24;52.89;100728.59;104263;1256;61544;-57
2024/02/01 10:09:38;;;;;;;12.20;6.10;;;;;;;8.21;52.84;100725.10;104712;1256;64254;-60
2024/02/01 10:12:07;;;;;;;30.50;20.80;;;;;;;8.17;52.88;100720.96;106670;1259;60287;-60
2024/02/01 10:14:35;;;;;;;15.60;8.70;;;;;;;8.13;52.95;100713.04;104786;1257;62849;-58
2024/02/01 10:17:07;;;;;;;25.70;18.20;;;;;;;8.10;53.02;100701.13;108715;1257;59093;-58
2024/02/01 10:19:37;;;;;;;17.60;8.20;;;;;;;8.08;53.07;100686.08;108652;1253;57785;-61
2024/02/01 10:22:09;;;;;;;29.00;20.20;;;;;;;8.08;53.14;100682.23;108534;1256;74676;-57
2024/02/01 10:24:48;;;;;;;25.70;17.90;;;;;;;8.09;53.02;100678.35;108509;1256;65901;-57
2024/02/01 10:27:19;;;;;;;15.20;6.40;;;;;;;8.20;52.92;100668.90;108223;1257;75482;-58
2024/02/01 10:29:47;;;;;;;14.30;7.70;;;;;;;8.32;52.70;100676.65;104349;1256;63958;-57
2024/02/01 10:32:16;;;;;;;24.40;18.50;;;;;;;8.38;52.48;100684.30;104456;1258;59784;-60
2024/02/01 10:34:49;;;;;;;24.90;17.80;;;;;;;8.42;52.33;100684.44;108183;1257;64294;-56
2024/02/01 10:37:18;;;;;;;28.80;18.10;;;;;;;8.45;52.27;100680.17;108681;1255;61891;-57
2024/02/01 10:40:06;;;;;;;14.30;7.30;;;;;;;8.46;52.15;100675.41;108584;1257;65898;-55
2024/02/01 10:42:34;;;;;;;22.90;15.60;;;;;;;8.46;52.05;100662.84;108633;1255;58319;-56
2024/02/01 10:45:03;;;;;;;25.00;17.90;;;;;;;8.43;52.04;100657.58;107777;1257;59923;-59
2024/02/01 10:47:34;;;;;;;23.90;17.80;;;;;;;8.45;52.10;100653.09;108646;1257;62916;-59
2024/02/01 10:50:02;;;;;;;15.20;7.00;;;;;;;8.45;52.08;100647.31;107855;1257;60649;-52
2024/02/01 10:52:30;;;;;;;25.20;17.70;;;;;;;8.43;52.12;100642.73;104969;1257;73914;-57
2024/02/01 10:54:57;;;;;;;12.70;6.80;;;;;;;8.43;52.18;100640.81;104338;1261;60441;-56
2024/02/01 10:57:25;;;;;;;25.50;17.50;;;;;;;8.41;52.12;100636.18;104656;1259;59509;-56
2024/02/01 10:59:53;;;;;;;30.50;19.10;;;;;;;8.35;52.18;100633.92;104143;1257;63015;-58
2024/02/01 11:02:22;;;;;;;17.20;7.70;;;;;;;8.32;52.11;100627.17;103931;1257;72619;-57
2024/02/01 11:04:50;;;;;;;26.30;19.30;;;;;;;8.22;52.28;100622.08;108598;1256;63849;-58
2024/02/01 11:07:20;;;;;;;19.20;7.50;;;;;;;8.13;52.35;100620.08;108551;1256;57850;-58
2024/02/01 11:09:48;;;;;;;27.00;17.10;;;;;;;8.12;52.52;100619.58;108569;1261;59137;-58
2024/02/01 11:12:22;;;;;;;15.80;6.70;;;;;;;8.18;52.57;100614.30;108588;1255;76784;-57
2024/02/01 11:14:50;;;;;;;26.60;17.50;;;;;;;8.23;52.65;100612.23;108576;1256;61888;-58
2024/02/01 11:17:19;;;;;;;23.50;16.50;;;;;;;8.24;52.49;100602.36;105283;1257;64980;-58
2024/02/01 11:19:48;;;;;;;22.30;17.50;;;;;;;8.21;52.55;100590.16;104377;1257;60829;-55
2024/02/01 11:22:20;;;;;;;13.60;6.50;;;;;;;8.19;52.58;100584.52;108605;1257;61036;-58
2024/02/01 11:24:47;;;;;;;14.10;7.00;;;;;;;8.17;52.79;100584.64;108669;1256;66385;-55
2024/02/01 11:27:19;;;;;;;24.10;17.00;;;;;;;8.16;52.76;100583.65;108675;1257;60331;-60
2024/02/01 11:29:53;;;;;;;24.40;17.40;;;;;;;8.16;52.75;100574.39;108588;1257;65514;-59
2024/02/01 11:32:32;;;;;;;25.20;18.10;;;;;;;8.19;52.72;100567.61;108476;1260;58072;-59
2024/02/01 11:35:01;;;;;;;14.50;7.50;;;;;;;8.21;52.81;100565.89;108557;1254;59256;-58
2024/02/01 11:37:28;;;;;;;23.70;17.20;;;;;;;8.23;52.90;100559.63;108547;1256;66364;-58
2024/02/01 11:39:56;;;;;;;14.50;8.30;;;;;;;8.26;52.79;100555.78;105931;1257;62392;-59
2024/02/01 11:42:24;;;;;;;24.30;17.40;;;;;;;8.25;52.74;100548.80;108691;1256;65976;-57
2024/02/01 11:44:59;;;;;;;15.50;6.30;;;;;;;8.26;52.72;100543.02;108615;1254;57899;-57
2024/02/01 11:47:30;;;;;;;21.70;16.00;;;;;;;8.31;52.61;100542.16;107602;1259;60729;-58
2024/02/01 11:49:57;;;;;;;23.70;15.40;;;;;;;8.39;52.53;100534.62;107069;1257;62971;-58
2024/02/01 11:52:33;;;;;;;22.90;16.30;;;;;;;8.44;52.57;100529.20;104176;1256;61588;-57
2024/02/01 11:55:03;;;;;;;11.00;5.70;;;;;;;8.47;52.31;100521.86;104403;1257;63897;-59
2024/02/01 11:57:32;;;;;;;23.60;16.20;;;;;;;8.46;52.32;100514.41;104486;1260;59765;-57
2024/02/01 12:00:12;;;;;;;22.40;15.60;;;;;;;8.45;52.24;100509.57;108664;1256;57591;-61
2024/02/01 12:02:45;;;;;;;12.00;5.40;;;;;;;8.45;52.25;100510.65;105624;1259;74922;-62
2024/02/01 12:05:18;;;;;;;22.40;15.30;;;;;;;8.41;52.31;100506.88;108826;1254;71379;-62
2024/02/01 12:07:47;;;;;;;12.10;6.30;;;;;;;8.37;52.40;100502.20;105463;1255;65935;-59
2024/02/01 12:10:16;;;;;;;21.40;15.00;;;;;;;8.34;52.37;100497.51;108669;1254;59655;-58
2024/02/01 12:12:47;;;;;;;13.20;7.80;;;;;;;8.33;52.49;100495.98;108654;1259;58953;-61
2024/02/01 12:15:15;;;;;;;20.50;15.20;;;;;;;8.32;52.58;100486.77;108711;1254;64745;-63
2024/02/01 12:17:45;;;;;;;22.20;15.60;;;;;;;8.34;52.64;100482.85;108766;1254;61796;-60